Atka, Alaska
Current Conditions -  °F | °C
As of 4:36 PM on Wednesday 22 Oct 2014 (Local Time) from PAAK Reporting Station
Broken Clouds Broken Clouds  
Wind Chill: 42°   Ceiling: 3000
Heat Index: 46°   Visibility: 10mi
Dew Point: 39°   Wind: 8mph
Humidity: 76%   Direction: 310°NW
Pressure: 30.24"   Gusts: NA
Location:  52.19°N, 174.2°W
Report Text: PAAK 230136Z 31007KT 10SM BKN030 BKN044 08/04 A3024 RMK AO1
Loading
Personal Weather Stations






























Interactive Weather Map New forecast layout! Learn more

10-Day Weather Forecast

Advertisements
Track Severe Weather on mobile